Time;durP1;ratioP1;P1;durP2;ratioP2;P2;SDS_P1;SDS_P2;PMS_P1;PMS_P2;Temp;Humidity;BMP_temperature;BMP_pressure;BME280_temperature;BME280_humidity;BME280_pressure;Samples;Min_cycle;Max_cycle;Signal;HPM_P1;HPM_P2
2023/07/10 00:00:47;;;;;;;;;;;22.90;65.10;;;;;;5008262;28;93070;-41
2023/07/10 00:03:13;;;;;;;;;;;22.90;65.20;;;;;;5004709;28;91409;-42
2023/07/10 00:05:39;;;;;;;;;;;22.90;65.20;;;;;;5009066;28;91995;-42
2023/07/10 00:08:05;;;;;;;;;;;22.90;65.20;;;;;;5010421;28;94247;-41
2023/07/10 00:10:31;;;;;;;;;;;22.80;65.20;;;;;;5007734;28;93732;-42
2023/07/10 00:12:56;;;;;;;;;;;22.80;65.30;;;;;;5007297;28;95007;-42
2023/07/10 00:15:22;;;;;;;;;;;22.80;65.40;;;;;;5012840;28;94349;-42
2023/07/10 00:17:50;;;;;;;;;;;22.80;65.20;;;;;;5007385;28;93716;-41
2023/07/10 00:20:26;;;;;;;;;;;22.80;65.30;;;;;;5003686;28;94668;-44
2023/07/10 00:22:51;;;;;;;;;;;22.80;65.30;;;;;;5008755;28;92073;-42
2023/07/10 00:25:17;;;;;;;;;;;22.70;65.30;;;;;;5010459;28;93889;-43
2023/07/10 00:27:44;;;;;;;;;;;22.70;65.20;;;;;;5006277;28;92473;-42
2023/07/10 00:30:15;;;;;;;;;;;22.70;65.30;;;;;;5009638;28;92076;-43
2023/07/10 00:32:42;;;;;;;;;;;22.70;65.30;;;;;;5011074;28;92490;-43
2023/07/10 00:35:07;;;;;;;;;;;22.70;65.20;;;;;;5006435;28;93885;-42
2023/07/10 00:37:33;;;;;;;;;;;22.70;65.90;;;;;;5012892;28;92173;-44
2023/07/10 00:39:59;;;;;;;;;;;22.70;65.10;;;;;;5008970;28;93343;-41
2023/07/10 00:42:24;;;;;;;;;;;22.60;65.20;;;;;;5007279;28;92260;-42
2023/07/10 00:44:52;;;;;;;;;;;22.60;65.30;;;;;;5010625;28;92842;-41
2023/07/10 00:47:32;;;;;;;;;;;22.60;65.20;;;;;;5005360;28;93242;-43
2023/07/10 00:50:03;;;;;;;;;;;22.60;65.10;;;;;;5010681;28;92155;-42
2023/07/10 00:52:32;;;;;;;;;;;22.60;65.20;;;;;;5009207;28;92374;-42
2023/07/10 00:54:59;;;;;;;;;;;22.60;65.20;;;;;;5007266;28;93758;-42
2023/07/10 00:57:35;;;;;;;;;;;22.60;65.20;;;;;;5007998;28;92274;-42
2023/07/10 01:00:11;;;;;;;;;;;22.50;65.20;;;;;;5010045;28;93976;-41
2023/07/10 01:02:36;;;;;;;;;;;22.50;65.30;;;;;;5003402;28;92090;-43
2023/07/10 01:05:03;;;;;;;;;;;22.50;65.30;;;;;;5008817;28;92488;-41
2023/07/10 01:07:32;;;;;;;;;;;22.50;65.10;;;;;;5007643;28;93342;-42
2023/07/10 01:10:00;;;;;;;;;;;22.40;65.10;;;;;;5005967;28;92229;-41
2023/07/10 01:12:26;;;;;;;;;;;22.40;65.20;;;;;;5008090;28;92313;-42
2023/07/10 01:14:52;;;;;;;;;;;22.40;65.20;;;;;;5006628;28;92134;-42
2023/07/10 01:17:17;;;;;;;;;;;22.40;65.20;;;;;;5007358;28;91418;-42
2023/07/10 01:19:45;;;;;;;;;;;22.40;65.30;;;;;;5006039;28;92141;-41
2023/07/10 01:22:11;;;;;;;;;;;22.30;65.20;;;;;;5011224;28;94350;-41
2023/07/10 01:24:37;;;;;;;;;;;22.30;65.10;;;;;;5007928;28;93076;-41
2023/07/10 01:27:03;;;;;;;;;;;22.30;65.10;;;;;;5006592;28;93055;-41
2023/07/10 01:29:41;;;;;;;;;;;22.30;65.10;;;;;;5008039;28;92192;-43
2023/07/10 01:32:11;;;;;;;;;;;22.30;65.10;;;;;;5009304;28;92291;-43
2023/07/10 01:34:39;;;;;;;;;;;22.30;65.30;;;;;;5004582;28;93343;-41
2023/07/10 01:37:05;;;;;;;;;;;22.30;65.10;;;;;;5007337;28;92121;-42
2023/07/10 01:39:42;;;;;;;;;;;22.30;65.20;;;;;;5007612;28;94036;-42
2023/07/10 01:42:08;;;;;;;;;;;22.20;64.90;;;;;;5003555;28;92207;-41
2023/07/10 01:44:35;;;;;;;;;;;22.20;65.20;;;;;;5011094;28;92711;-43
2023/07/10 01:47:02;;;;;;;;;;;22.20;65.10;;;;;;5008391;28;93809;-41
2023/07/10 01:49:28;;;;;;;;;;;22.20;65.10;;;;;;5003848;28;93143;-41
2023/07/10 01:51:55;;;;;;;;;;;22.20;65.10;;;;;;5009320;28;93362;-41
2023/07/10 01:54:21;;;;;;;;;;;22.20;65.10;;;;;;5007380;28;93201;-41
2023/07/10 01:56:47;;;;;;;;;;;22.20;65.00;;;;;;5007321;28;92185;-41
2023/07/10 01:59:12;;;;;;;;;;;22.10;64.90;;;;;;5004857;28;92563;-41
2023/07/10 02:01:38;;;;;;;;;;;22.10;65.00;;;;;;5008682;28;93351;-43
2023/07/10 02:04:04;;;;;;;;;;;22.10;65.00;;;;;;5008276;28;92428;-42
2023/07/10 02:06:30;;;;;;;;;;;22.10;65.00;;;;;;5008613;28;92409;-43
2023/07/10 02:08:55;;;;;;;;;;;22.10;65.00;;;;;;5006706;28;92122;-42
2023/07/10 02:11:21;;;;;;;;;;;22.00;65.00;;;;;;5008045;28;94223;-43
2023/07/10 02:13:46;;;;;;;;;;;22.10;65.00;;;;;;5005109;28;94152;-42
2023/07/10 02:16:13;;;;;;;;;;;22.00;65.00;;;;;;5007878;28;92098;-43
2023/07/10 02:18:39;;;;;;;;;;;22.00;65.00;;;;;;5008273;28;92401;-42
2023/07/10 02:21:04;;;;;;;;;;;22.00;64.90;;;;;;5012466;28;93296;-41
2023/07/10 02:23:30;;;;;;;;;;;22.00;64.90;;;;;;5010208;28;92247;-41
2023/07/10 02:25:55;;;;;;;;;;;21.90;64.90;;;;;;5014079;28;92957;-43
2023/07/10 02:28:21;;;;;;;;;;;22.00;65.00;;;;;;5008347;28;93312;-42
2023/07/10 02:30:46;;;;;;;;;;;21.90;64.90;;;;;;5011149;28;95495;-42
2023/07/10 02:33:12;;;;;;;;;;;21.90;65.00;;;;;;5007498;28;96787;-44
2023/07/10 02:35:38;;;;;;;;;;;21.90;65.00;;;;;;5011272;28;92191;-43
2023/07/10 02:38:03;;;;;;;;;;;21.90;65.00;;;;;;5010392;28;93849;-41
2023/07/10 02:40:29;;;;;;;;;;;21.90;65.70;;;;;;5009402;28;92248;-43
2023/07/10 02:42:54;;;;;;;;;;;21.90;65.00;;;;;;5012457;28;92239;-42
2023/07/10 02:45:20;;;;;;;;;;;21.90;65.00;;;;;;5009019;28;92480;-45
2023/07/10 02:47:45;;;;;;;;;;;21.80;65.00;;;;;;5013973;28;93159;-43
2023/07/10 02:50:11;;;;;;;;;;;21.80;64.90;;;;;;5004781;28;93369;-43
2023/07/10 02:52:36;;;;;;;;;;;21.80;64.90;;;;;;5011442;28;93286;-44
2023/07/10 02:55:02;;;;;;;;;;;21.80;65.00;;;;;;5009815;28;91480;-44
2023/07/10 02:57:28;;;;;;;;;;;21.80;65.00;;;;;;5011678;28;92970;-44
2023/07/10 02:59:53;;;;;;;;;;;21.70;64.90;;;;;;5009756;28;93236;-44
2023/07/10 03:02:19;;;;;;;;;;;21.70;65.00;;;;;;5009424;28;93128;-47
2023/07/10 03:04:44;;;;;;;;;;;21.70;64.90;;;;;;5011610;28;93435;-46
2023/07/10 03:07:10;;;;;;;;;;;21.70;65.00;;;;;;5008655;28;92693;-44
2023/07/10 03:09:35;;;;;;;;;;;21.70;64.80;;;;;;5014439;28;92062;-44
2023/07/10 03:12:01;;;;;;;;;;;21.70;64.90;;;;;;5007144;28;93504;-43
2023/07/10 03:14:26;;;;;;;;;;;21.70;64.90;;;;;;5006553;28;92117;-41
2023/07/10 03:16:52;;;;;;;;;;;21.70;64.90;;;;;;5003535;28;92660;-41
2023/07/10 03:19:18;;;;;;;;;;;21.70;65.00;;;;;;5008748;28;92323;-42
2023/07/10 03:21:43;;;;;;;;;;;21.60;64.80;;;;;;5002192;28;93149;-43
2023/07/10 03:24:09;;;;;;;;;;;21.60;64.80;;;;;;5010659;28;92087;-43
2023/07/10 03:26:34;;;;;;;;;;;21.60;64.90;;;;;;5007124;28;94292;-41
2023/07/10 03:29:05;;;;;;;;;;;21.60;64.70;;;;;;5007411;28;92237;-41
2023/07/10 03:31:31;;;;;;;;;;;21.50;64.90;;;;;;4992346;28;92650;-42
2023/07/10 03:33:56;;;;;;;;;;;21.60;64.90;;;;;;5006344;28;92217;-42
2023/07/10 03:36:22;;;;;;;;;;;21.50;64.90;;;;;;5006002;28;92504;-41
2023/07/10 03:38:47;;;;;;;;;;;21.50;65.00;;;;;;5007843;28;93985;-41
2023/07/10 03:41:13;;;;;;;;;;;21.50;65.00;;;;;;5002159;28;92314;-41
2023/07/10 03:43:38;;;;;;;;;;;21.50;64.80;;;;;;5010493;28;92285;-41
2023/07/10 03:46:04;;;;;;;;;;;21.50;64.80;;;;;;5007252;28;93125;-41
2023/07/10 03:48:29;;;;;;;;;;;21.50;64.80;;;;;;4995098;28;92297;-41
2023/07/10 03:50:55;;;;;;;;;;;21.50;64.90;;;;;;5005276;28;93116;-41
2023/07/10 03:53:20;;;;;;;;;;;21.50;64.80;;;;;;5012715;28;93188;-41
2023/07/10 03:55:52;;;;;;;;;;;21.40;64.90;;;;;;5010762;28;92123;-42
2023/07/10 03:58:21;;;;;;;;;;;21.40;64.80;;;;;;4999756;28;93293;-42
2023/07/10 04:00:47;;;;;;;;;;;21.40;64.90;;;;;;5007571;28;92304;-42
2023/07/10 04:03:12;;;;;;;;;;;21.40;64.90;;;;;;5010105;28;92444;-41
2023/07/10 04:05:38;;;;;;;;;;;21.40;64.90;;;;;;5011259;28;93257;-41
2023/07/10 04:08:03;;;;;;;;;;;21.40;64.90;;;;;;4995176;28;93220;-41
2023/07/10 04:10:29;;;;;;;;;;;21.40;64.80;;;;;;4999042;28;92017;-41
2023/07/10 04:12:54;;;;;;;;;;;21.30;65.00;;;;;;5011718;28;93123;-41
2023/07/10 04:15:20;;;;;;;;;;;21.30;64.90;;;;;;5000142;28;95412;-42
2023/07/10 04:17:45;;;;;;;;;;;21.30;65.00;;;;;;4999991;28;93357;-41
2023/07/10 04:20:11;;;;;;;;;;;21.30;65.00;;;;;;5008235;28;92441;-43
2023/07/10 04:22:36;;;;;;;;;;;21.30;65.00;;;;;;5009908;28;92146;-42
2023/07/10 04:25:05;;;;;;;;;;;21.30;64.90;;;;;;5006268;28;93261;-41
2023/07/10 04:27:34;;;;;;;;;;;21.30;64.80;;;;;;4998760;28;92193;-43
2023/07/10 04:29:59;;;;;;;;;;;21.20;64.90;;;;;;5003549;28;92720;-42
2023/07/10 04:32:25;;;;;;;;;;;21.20;64.90;;;;;;5008616;28;93533;-42
2023/07/10 04:34:51;;;;;;;;;;;21.20;64.90;;;;;;5002989;28;92461;-41
2023/07/10 04:37:16;;;;;;;;;;;21.20;64.90;;;;;;4995394;28;93136;-42
2023/07/10 04:39:42;;;;;;;;;;;21.20;65.00;;;;;;5005894;28;93188;-43
2023/07/10 04:42:07;;;;;;;;;;;21.20;64.90;;;;;;5009950;28;93443;-41
2023/07/10 04:44:33;;;;;;;;;;;21.20;64.90;;;;;;4999095;28;93217;-42
2023/07/10 04:46:58;;;;;;;;;;;21.20;64.90;;;;;;5003320;28;92250;-43
2023/07/10 04:49:26;;;;;;;;;;;21.20;65.00;;;;;;5009440;28;91973;-42
2023/07/10 04:51:51;;;;;;;;;;;21.20;65.00;;;;;;5008714;28;93261;-44
2023/07/10 04:54:17;;;;;;;;;;;21.20;65.00;;;;;;5002895;28;92108;-42
2023/07/10 04:56:42;;;;;;;;;;;21.20;65.00;;;;;;4999010;28;92450;-44
2023/07/10 04:59:08;;;;;;;;;;;21.20;65.00;;;;;;5003077;28;92258;-41
2023/07/10 05:01:33;;;;;;;;;;;21.10;65.00;;;;;;5008830;28;92163;-41
2023/07/10 05:03:59;;;;;;;;;;;21.20;65.00;;;;;;5001303;28;95159;-41
2023/07/10 05:06:25;;;;;;;;;;;21.20;65.00;;;;;;4998075;28;92321;-41
2023/07/10 05:08:51;;;;;;;;;;;21.20;65.00;;;;;;5008384;28;93890;-41
2023/07/10 05:11:17;;;;;;;;;;;21.20;65.00;;;;;;5005153;28;92733;-41
2023/07/10 05:13:42;;;;;;;;;;;21.10;65.00;;;;;;4988788;28;93129;-42
2023/07/10 05:16:08;;;;;;;;;;;21.20;65.10;;;;;;5000387;28;92062;-42
2023/07/10 05:18:34;;;;;;;;;;;21.10;65.70;;;;;;5012511;28;93401;-40
2023/07/10 05:20:59;;;;;;;;;;;21.10;65.20;;;;;;5004564;28;93870;-41
2023/07/10 05:23:25;;;;;;;;;;;21.10;65.10;;;;;;5002495;28;92525;-41
2023/07/10 05:25:59;;;;;;;;;;;21.10;65.10;;;;;;5006452;28;92838;-42
2023/07/10 05:28:25;;;;;;;;;;;21.10;65.20;;;;;;5009718;28;92930;-42
2023/07/10 05:30:51;;;;;;;;;;;21.10;65.20;;;;;;4999282;28;93096;-41
2023/07/10 05:33:16;;;;;;;;;;;21.10;65.20;;;;;;4997278;28;92356;-42
2023/07/10 05:35:48;;;;;;;;;;;21.20;65.30;;;;;;5006749;28;92290;-41
2023/07/10 05:38:14;;;;;;;;;;;21.10;65.30;;;;;;5008969;28;92965;-42
2023/07/10 05:40:43;;;;;;;;;;;21.10;65.30;;;;;;5003600;28;92461;-42
2023/07/10 05:43:08;;;;;;;;;;;21.10;65.40;;;;;;4999358;28;92390;-41
2023/07/10 05:45:33;;;;;;;;;;;21.10;65.40;;;;;;5008827;28;91436;-41
2023/07/10 05:47:59;;;;;;;;;;;21.20;65.40;;;;;;5008978;28;92036;-42
2023/07/10 05:50:24;;;;;;;;;;;21.20;65.40;;;;;;5002407;28;92939;-41
2023/07/10 05:52:50;;;;;;;;;;;21.20;65.50;;;;;;5005715;28;93576;-41
2023/07/10 05:55:15;;;;;;;;;;;21.20;65.40;;;;;;5010473;28;93496;-41
2023/07/10 05:57:41;;;;;;;;;;;21.20;65.50;;;;;;5008479;28;92305;-41
2023/07/10 06:00:07;;;;;;;;;;;21.20;65.50;;;;;;5002179;28;92437;-42
2023/07/10 06:02:32;;;;;;;;;;;21.10;65.50;;;;;;5007090;28;92513;-41
2023/07/10 06:04:58;;;;;;;;;;;21.20;65.60;;;;;;5012275;28;92123;-41
2023/07/10 06:07:23;;;;;;;;;;;21.10;65.60;;;;;;5011248;28;92704;-41
2023/07/10 06:09:49;;;;;;;;;;;21.20;65.70;;;;;;5010240;28;92537;-41
2023/07/10 06:12:14;;;;;;;;;;;21.10;65.60;;;;;;5009002;28;92151;-42
2023/07/10 06:14:40;;;;;;;;;;;21.20;65.70;;;;;;5011191;28;92520;-42
2023/07/10 06:17:05;;;;;;;;;;;21.20;65.70;;;;;;5006039;28;94333;-41
2023/07/10 06:19:31;;;;;;;;;;;21.20;65.60;;;;;;5011357;28;92202;-41
2023/07/10 06:22:10;;;;;;;;;;;21.20;65.70;;;;;;5009307;28;92482;-43
2023/07/10 06:24:35;;;;;;;;;;;21.20;65.70;;;;;;5011215;28;92456;-42
2023/07/10 06:27:02;;;;;;;;;;;21.20;65.70;;;;;;5008032;28;92543;-42
2023/07/10 06:29:28;;;;;;;;;;;21.20;65.70;;;;;;5010767;28;93006;-41
2023/07/10 06:31:53;;;;;;;;;;;21.20;65.70;;;;;;5006138;28;92845;-42
2023/07/10 06:34:19;;;;;;;;;;;21.20;65.70;;;;;;5000842;28;92459;-41
2023/07/10 06:36:44;;;;;;;;;;;21.20;65.70;;;;;;5006319;28;93738;-42
2023/07/10 06:39:10;;;;;;;;;;;21.20;65.70;;;;;;5010261;28;92136;-42
2023/07/10 06:41:36;;;;;;;;;;;21.20;65.80;;;;;;5005154;28;93721;-42
2023/07/10 06:44:01;;;;;;;;;;;21.20;65.80;;;;;;5008813;28;93419;-41
2023/07/10 06:46:27;;;;;;;;;;;21.20;65.90;;;;;;5005141;28;95509;-43
2023/07/10 06:48:52;;;;;;;;;;;21.20;65.80;;;;;;5007816;28;93024;-44
2023/07/10 06:51:18;;;;;;;;;;;21.20;65.80;;;;;;5002021;28;92176;-45
2023/07/10 06:53:43;;;;;;;;;;;21.20;65.80;;;;;;5002160;28;92406;-46
2023/07/10 06:56:09;;;;;;;;;;;21.20;66.50;;;;;;5009212;28;93156;-44
2023/07/10 06:58:34;;;;;;;;;;;21.20;65.90;;;;;;5007863;28;91524;-43
2023/07/10 07:01:00;;;;;;;;;;;21.20;65.90;;;;;;5001563;28;92111;-43
2023/07/10 07:03:26;;;;;;;;;;;21.20;65.90;;;;;;4997719;28;93709;-45
2023/07/10 07:05:52;;;;;;;;;;;21.30;66.00;;;;;;5013009;28;93059;-45
2023/07/10 07:08:18;;;;;;;;;;;21.20;66.00;;;;;;5009372;28;93129;-44
2023/07/10 07:10:44;;;;;;;;;;;21.20;65.90;;;;;;5005493;28;92175;-45
2023/07/10 07:13:10;;;;;;;;;;;21.20;66.00;;;;;;5005694;28;92854;-44
2023/07/10 07:15:35;;;;;;;;;;;21.20;66.00;;;;;;5007327;28;92423;-43
2023/07/10 07:18:01;;;;;;;;;;;21.20;66.00;;;;;;5006004;28;92431;-43
2023/07/10 07:20:27;;;;;;;;;;;21.30;66.00;;;;;;4998886;28;92497;-42
2023/07/10 07:22:52;;;;;;;;;;;21.30;66.00;;;;;;5002396;28;91727;-44
2023/07/10 07:25:18;;;;;;;;;;;21.30;66.00;;;;;;5009914;28;92041;-47
2023/07/10 07:27:43;;;;;;;;;;;21.30;66.00;;;;;;5009335;28;92492;-44
2023/07/10 07:30:09;;;;;;;;;;;21.30;66.10;;;;;;4998465;28;93348;-41
2023/07/10 07:32:35;;;;;;;;;;;21.30;66.10;;;;;;5004909;28;95217;-47
2023/07/10 07:35:00;;;;;;;;;;;21.30;66.10;;;;;;5006905;28;93037;-42
2023/07/10 07:37:26;;;;;;;;;;;21.30;66.10;;;;;;5004620;28;92342;-42
2023/07/10 07:39:51;;;;;;;;;;;21.30;66.20;;;;;;4982852;28;94048;-42
2023/07/10 07:42:17;;;;;;;;;;;21.30;66.20;;;;;;5002892;28;93108;-41
2023/07/10 07:44:42;;;;;;;;;;;21.30;66.20;;;;;;5007932;28;92152;-41
2023/07/10 07:47:08;;;;;;;;;;;21.30;66.20;;;;;;4999393;28;93148;-42
2023/07/10 07:49:33;;;;;;;;;;;21.30;66.20;;;;;;5007205;28;93009;-42
2023/07/10 07:51:59;;;;;;;;;;;21.30;66.20;;;;;;5005540;28;92621;-42
2023/07/10 07:54:25;;;;;;;;;;;21.30;66.20;;;;;;5008365;28;94076;-42
2023/07/10 07:56:50;;;;;;;;;;;21.30;66.20;;;;;;5006153;28;92246;-41
2023/07/10 07:59:18;;;;;;;;;;;21.30;66.20;;;;;;5008005;28;92394;-42
2023/07/10 08:01:43;;;;;;;;;;;21.30;66.20;;;;;;5007741;28;93030;-42
2023/07/10 08:04:09;;;;;;;;;;;21.30;66.20;;;;;;4991661;28;92126;-42
2023/07/10 08:06:34;;;;;;;;;;;21.30;66.20;;;;;;5009864;28;92373;-42
2023/07/10 08:09:00;;;;;;;;;;;21.30;66.20;;;;;;5007946;28;94639;-42
2023/07/10 08:11:26;;;;;;;;;;;21.30;66.20;;;;;;5010395;28;91309;-41
2023/07/10 08:13:52;;;;;;;;;;;21.30;66.20;;;;;;5010622;28;93278;-43
2023/07/10 08:16:18;;;;;;;;;;;21.30;66.20;;;;;;5007117;28;92064;-41
2023/07/10 08:18:43;;;;;;;;;;;21.30;66.20;;;;;;5008290;28;93021;-41
2023/07/10 08:21:10;;;;;;;;;;;21.40;66.30;;;;;;5009075;28;93132;-42
2023/07/10 08:23:36;;;;;;;;;;;21.30;66.20;;;;;;5009854;28;92153;-43
2023/07/10 08:26:03;;;;;;;;;;;21.30;66.30;;;;;;5008238;28;92946;-41
2023/07/10 08:28:28;;;;;;;;;;;21.40;66.30;;;;;;5004110;28;92143;-43
2023/07/10 08:30:54;;;;;;;;;;;21.40;66.40;;;;;;5011412;28;92998;-43
2023/07/10 08:33:19;;;;;;;;;;;21.40;66.30;;;;;;5009928;28;93011;-41
2023/07/10 08:35:54;;;;;;;;;;;21.40;66.30;;;;;;5009045;28;91464;-41
2023/07/10 08:38:19;;;;;;;;;;;21.40;66.30;;;;;;5008359;28;92069;-41
2023/07/10 08:40:47;;;;;;;;;;;21.40;66.30;;;;;;5009906;28;93066;-41
2023/07/10 08:43:27;;;;;;;;;;;21.40;66.40;;;;;;5000953;28;93137;-41
2023/07/10 08:45:57;;;;;;;;;;;21.50;66.50;;;;;;5007405;28;93731;-41
2023/07/10 08:48:32;;;;;;;;;;;21.40;66.40;;;;;;5009884;28;94714;-41
2023/07/10 08:51:01;;;;;;;;;;;21.50;66.40;;;;;;5008188;28;92207;-43
2023/07/10 08:53:30;;;;;;;;;;;21.40;66.30;;;;;;5009423;28;92259;-41
2023/07/10 08:55:55;;;;;;;;;;;21.50;66.50;;;;;;5008972;28;92437;-42
2023/07/10 08:58:22;;;;;;;;;;;21.40;66.50;;;;;;5005904;28;92327;-42
2023/07/10 09:00:49;;;;;;;;;;;21.50;66.60;;;;;;5007456;28;92312;-42
2023/07/10 09:03:33;;;;;;;;;;;21.50;66.50;;;;;;5007913;28;92225;-41
2023/07/10 09:05:59;;;;;;;;;;;21.50;66.50;;;;;;5004059;28;92524;-41
2023/07/10 09:08:26;;;;;;;;;;;21.50;66.70;;;;;;5006925;28;94022;-41
2023/07/10 09:10:54;;;;;;;;;;;21.50;66.60;;;;;;5007880;28;92147;-42
2023/07/10 09:13:40;;;;;;;;;;;21.50;66.70;;;;;;5003267;28;92330;-41
2023/07/10 09:16:14;;;;;;;;;;;21.50;66.60;;;;;;5007169;28;93021;-41
2023/07/10 09:18:55;;;;;;;;;;;21.50;66.60;;;;;;5003112;28;94137;-41
2023/07/10 09:21:28;;;;;;;;;;;21.60;66.60;;;;;;5006913;28;93240;-42
2023/07/10 09:23:55;;;;;;;;;;;21.60;66.60;;;;;;5003928;28;92296;-41
2023/07/10 09:26:25;;;;;;;;;;;21.60;66.50;;;;;;5009081;28;93708;-41
2023/07/10 09:28:59;;;;;;;;;;;21.60;66.50;;;;;;5006711;28;93007;-42
2023/07/10 09:31:45;;;;;;;;;;;21.60;66.30;;;;;;5002608;28;93231;-41
2023/07/10 09:34:11;;;;;;;;;;;21.60;66.30;;;;;;5005740;28;93092;-43
2023/07/10 09:36:36;;;;;;;;;;;21.60;66.40;;;;;;5002105;28;94662;-41
2023/07/10 09:39:03;;;;;;;;;;;21.70;66.40;;;;;;5012961;28;93026;-41
2023/07/10 09:41:29;;;;;;;;;;;21.70;66.30;;;;;;5006969;28;93771;-41
2023/07/10 09:43:56;;;;;;;;;;;21.70;66.30;;;;;;5005987;28;92288;-43
2023/07/10 09:46:29;;;;;;;;;;;21.70;66.20;;;;;;5006725;28;92042;-41
2023/07/10 09:48:56;;;;;;;;;;;21.70;66.20;;;;;;5002039;28;94171;-41
2023/07/10 09:51:22;;;;;;;;;;;21.70;66.20;;;;;;5009509;28;91385;-42
2023/07/10 09:53:51;;;;;;;;;;;21.80;66.20;;;;;;5007520;28;92503;-41
2023/07/10 09:56:37;;;;;;;;;;;21.80;66.20;;;;;;5006891;28;93164;-41
2023/07/10 09:59:18;;;;;;;;;;;21.80;66.20;;;;;;5004852;28;93153;-41
2023/07/10 10:01:46;;;;;;;;;;;21.80;66.20;;;;;;5002559;28;93440;-42
2023/07/10 10:04:11;;;;;;;;;;;21.80;66.30;;;;;;5006512;28;92266;-41
2023/07/10 10:06:40;;;;;;;;;;;21.80;66.30;;;;;;5007469;28;92489;-42
2023/07/10 10:09:14;;;;;;;;;;;21.80;66.20;;;;;;5006455;28;93172;-41
2023/07/10 10:11:51;;;;;;;;;;;21.80;66.10;;;;;;5003296;28;92146;-42
2023/07/10 10:14:21;;;;;;;;;;;21.90;66.10;;;;;;5006220;28;92424;-41
2023/07/10 10:16:53;;;;;;;;;;;21.90;66.10;;;;;;5005073;28;93559;-42
2023/07/10 10:19:25;;;;;;;;;;;21.90;66.10;;;;;;5008190;28;92562;-41
2023/07/10 10:21:50;;;;;;;;;;;21.90;66.00;;;;;;5011339;28;92419;-42
2023/07/10 10:24:16;;;;;;;;;;;22.00;66.00;;;;;;5005881;28;93057;-41
2023/07/10 10:27:06;;;;;;;;;;;22.00;66.00;;;;;;5009208;28;94954;-41
2023/07/10 10:29:50;;;;;;;;;;;22.00;65.90;;;;;;5008449;28;93110;-43
2023/07/10 10:32:23;;;;;;;;;;;22.00;65.90;;;;;;5008383;28;92451;-41
2023/07/10 10:35:01;;;;;;;;;;;22.00;65.90;;;;;;5002826;28;92455;-42
2023/07/10 10:37:26;;;;;;;;;;;22.00;65.80;;;;;;5006228;28;93290;-42
2023/07/10 10:39:59;;;;;;;;;;;22.10;65.80;;;;;;5011442;28;92544;-41
2023/07/10 10:42:27;;;;;;;;;;;22.10;65.80;;;;;;5007131;28;92285;-44
2023/07/10 10:44:56;;;;;;;;;;;22.10;65.80;;;;;;5011202;28;93245;-44
2023/07/10 10:47:30;;;;;;;;;;;22.10;65.70;;;;;;5008198;28;93817;-42
2023/07/10 10:50:16;;;;;;;;;;;22.10;65.70;;;;;;5005072;28;94254;-44
2023/07/10 10:52:41;;;;;;;;;;;22.10;65.70;;;;;;5008554;28;92361;-41
2023/07/10 10:55:10;;;;;;;;;;;22.10;65.70;;;;;;5012382;28;92448;-41
2023/07/10 10:57:41;;;;;;;;;;;22.20;65.80;;;;;;5009469;28;93213;-43
2023/07/10 11:00:17;;;;;;;;;;;22.20;65.70;;;;;;5005196;28;92436;-42
2023/07/10 11:02:42;;;;;;;;;;;22.20;65.70;;;;;;5005746;28;92632;-42
2023/07/10 11:05:26;;;;;;;;;;;22.20;65.60;;;;;;5009510;28;93188;-41
2023/07/10 11:07:53;;;;;;;;;;;22.20;65.60;;;;;;5008914;28;91407;-45
2023/07/10 11:10:24;;;;;;;;;;;22.30;65.70;;;;;;5010901;28;93277;-41
2023/07/10 11:12:49;;;;;;;;;;;22.30;66.20;;;;;;5011027;28;92131;-43
2023/07/10 11:15:17;;;;;;;;;;;22.30;65.50;;;;;;5007542;28;93102;-42
2023/07/10 11:17:45;;;;;;;;;;;22.30;66.20;;;;;;5008468;28;93255;-42
2023/07/10 11:20:13;;;;;;;;;;;22.30;65.50;;;;;;5008890;28;92278;-43
2023/07/10 11:22:47;;;;;;;;;;;22.40;65.60;;;;;;5010858;28;92304;-41
2023/07/10 11:25:27;;;;;;;;;;;22.40;65.50;;;;;;5010864;28;92701;-42
2023/07/10 11:27:53;;;;;;;;;;;22.40;65.60;;;;;;5007224;28;92042;-42
2023/07/10 11:30:28;;;;;;;;;;;22.40;65.50;;;;;;5011118;28;92465;-45
2023/07/10 11:33:05;;;;;;;;;;;22.40;65.40;;;;;;5004312;28;91376;-43
2023/07/10 11:35:30;;;;;;;;;;;22.50;65.50;;;;;;5010216;28;93055;-45
2023/07/10 11:37:59;;;;;;;;;;;22.50;65.40;;;;;;5008597;28;94149;-45
2023/07/10 11:40:24;;;;;;;;;;;22.50;65.40;;;;;;5010872;28;93160;-43
2023/07/10 11:42:50;;;;;;;;;;;22.50;65.40;;;;;;5004653;28;94874;-45
2023/07/10 11:45:16;;;;;;;;;;;22.50;65.40;;;;;;5008528;28;94085;-43
2023/07/10 11:47:43;;;;;;;;;;;22.50;65.40;;;;;;5008994;28;92191;-50
2023/07/10 11:50:25;;;;;;;;;;;22.60;65.40;;;;;;5008506;28;94137;-45
2023/07/10 11:53:20;;;;;;;;;;;22.60;65.30;;;;;;5008440;28;94075;-49
2023/07/10 11:56:04;;;;;;;;;;;22.60;65.30;;;;;;5007266;28;94225;-45
2023/07/10 11:58:31;;;;;;;;;;;22.60;65.30;;;;;;5005395;28;92758;-46
2023/07/10 12:00:58;;;;;;;;;;;22.60;65.30;;;;;;5007301;28;92178;-41
2023/07/10 12:03:23;;;;;;;;;;;22.70;65.30;;;;;;5006411;28;95032;-42
2023/07/10 12:05:50;;;;;;;;;;;22.70;65.30;;;;;;5009150;28;94408;-43
2023/07/10 12:08:15;;;;;;;;;;;22.70;65.20;;;;;;5008058;28;92195;-43
2023/07/10 12:10:41;;;;;;;;;;;22.70;65.20;;;;;;5011387;28;92374;-42
2023/07/10 12:13:29;;;;;;;;;;;22.70;65.20;;;;;;5007613;28;93441;-44
2023/07/10 12:15:55;;;;;;;;;;;22.70;65.10;;;;;;5010062;28;92117;-41
2023/07/10 12:18:23;;;;;;;;;;;22.80;65.20;;;;;;5009579;28;92964;-42
2023/07/10 12:20:52;;;;;;;;;;;22.80;65.20;;;;;;5009110;28;92398;-41
2023/07/10 12:23:18;;;;;;;;;;;22.80;65.10;;;;;;5008922;28;94024;-42
2023/07/10 12:25:48;;;;;;;;;;;22.80;65.20;;;;;;5008385;28;94648;-42
2023/07/10 12:28:14;;;;;;;;;;;22.80;65.10;;;;;;5003484;28;92153;-43
2023/07/10 12:30:40;;;;;;;;;;;22.80;65.10;;;;;;5006198;28;93070;-41
2023/07/10 12:33:25;;;;;;;;;;;22.90;65.10;;;;;;5007683;28;93137;-41
2023/07/10 12:35:51;;;;;;;;;;;22.90;65.10;;;;;;5006651;28;92230;-42
2023/07/10 12:38:16;;;;;;;;;;;22.90;65.10;;;;;;5008778;28;93226;-41
2023/07/10 12:40:42;;;;;;;;;;;22.90;65.10;;;;;;5008748;28;92250;-42
2023/07/10 12:43:08;;;;;;;;;;;22.90;65.10;;;;;;5008804;28;92677;-41
2023/07/10 12:45:34;;;;;;;;;;;23.00;65.20;;;;;;5008913;28;93005;-41
2023/07/10 12:48:09;;;;;;;;;;;23.00;65.10;;;;;;5005707;28;91582;-41
2023/07/10 12:50:38;;;;;;;;;;;23.00;65.00;;;;;;5005845;28;93302;-41
2023/07/10 12:53:05;;;;;;;;;;;23.00;65.00;;;;;;5007450;28;93407;-41
2023/07/10 12:55:31;;;;;;;;;;;23.00;65.00;;;;;;5009418;28;93092;-41
2023/07/10 12:57:58;;;;;;;;;;;23.00;65.10;;;;;;5009320;28;94725;-42
2023/07/10 13:00:38;;;;;;;;;;;23.00;64.90;;;;;;5010183;28;92206;-41
2023/07/10 13:03:03;;;;;;;;;;;23.00;65.00;;;;;;5009713;28;92529;-41
2023/07/10 13:05:30;;;;;;;;;;;23.10;65.00;;;;;;5003216;28;93251;-42
2023/07/10 13:07:58;;;;;;;;;;;23.10;64.90;;;;;;5003021;28;92062;-42
2023/07/10 13:10:23;;;;;;;;;;;23.10;64.80;;;;;;5009500;28;92480;-41
2023/07/10 13:12:49;;;;;;;;;;;23.20;64.80;;;;;;5008228;28;93892;-41
2023/07/10 13:15:16;;;;;;;;;;;23.20;64.90;;;;;;5008492;28;92172;-41
2023/07/10 13:17:49;;;;;;;;;;;23.20;64.60;;;;;;5009479;28;93133;-42
2023/07/10 13:20:25;;;;;;;;;;;23.20;64.60;;;;;;5004180;28;95285;-42
2023/07/10 13:22:51;;;;;;;;;;;23.20;64.70;;;;;;5007472;28;93500;-41
2023/07/10 13:25:17;;;;;;;;;;;23.30;64.60;;;;;;5006638;28;93270;-42
2023/07/10 13:27:43;;;;;;;;;;;23.30;64.60;;;;;;5010330;28;92241;-42
2023/07/10 13:30:19;;;;;;;;;;;23.30;64.20;;;;;;5002868;28;92456;-41
2023/07/10 13:32:45;;;;;;;;;;;23.40;64.30;;;;;;5007743;28;93098;-42
2023/07/10 13:35:10;;;;;;;;;;;23.40;64.40;;;;;;5009275;28;92223;-43
2023/07/10 13:37:36;;;;;;;;;;;23.40;64.10;;;;;;5005948;28;92611;-43
2023/07/10 13:40:01;;;;;;;;;;;23.50;64.40;;;;;;5004903;28;93243;-44
2023/07/10 13:42:27;;;;;;;;;;;23.50;64.00;;;;;;5011402;28;92277;-42
2023/07/10 13:44:54;;;;;;;;;;;23.50;64.00;;;;;;5005152;28;94177;-42
2023/07/10 13:47:20;;;;;;;;;;;23.50;64.00;;;;;;5006810;28;92561;-42
2023/07/10 13:49:46;;;;;;;;;;;23.50;63.80;;;;;;5008915;28;92113;-42
2023/07/10 13:52:17;;;;;;;;;;;23.60;64.10;;;;;;5000260;28;93005;-41
2023/07/10 13:54:43;;;;;;;;;;;23.60;64.00;;;;;;5002488;28;92135;-42
2023/07/10 13:57:14;;;;;;;;;;;23.60;64.20;;;;;;5009357;28;92636;-41
2023/07/10 13:59:40;;;;;;;;;;;23.70;64.00;;;;;;5006204;28;94089;-41
2023/07/10 14:02:24;;;;;;;;;;;23.70;64.00;;;;;;5007874;28;91466;-42
2023/07/10 14:04:50;;;;;;;;;;;23.70;63.90;;;;;;5008268;28;92134;-42
2023/07/10 14:07:18;;;;;;;;;;;23.70;63.70;;;;;;4999734;28;92200;-41
2023/07/10 14:09:44;;;;;;;;;;;23.80;64.00;;;;;;5008476;28;93017;-43
2023/07/10 14:12:12;;;;;;;;;;;23.80;63.90;;;;;;5005712;28;93222;-41
2023/07/10 14:14:38;;;;;;;;;;;23.80;63.70;;;;;;5010830;28;92180;-43
2023/07/10 14:17:04;;;;;;;;;;;23.80;63.60;;;;;;5010800;28;92175;-41
2023/07/10 14:19:29;;;;;;;;;;;23.80;63.70;;;;;;5010601;28;94913;-43